sensor_id;sensor_type;location;lat;lon;timestamp;P1;durP1;ratioP1;P2;durP2;ratioP2
34872;SDS011;21084;51.098;14.506;2023-04-10T00:00:50;57.10;;;29.42;;
34872;SDS011;21084;51.098;14.506;2023-04-10T00:03:24;57.65;;;30.60;;
34872;SDS011;21084;51.098;14.506;2023-04-10T00:05:54;58.72;;;30.48;;
34872;SDS011;21084;51.098;14.506;2023-04-10T00:08:23;54.42;;;28.90;;
34872;SDS011;21084;51.098;14.506;2023-04-10T00:10:52;53.75;;;28.48;;
34872;SDS011;21084;51.098;14.506;2023-04-10T00:13:22;54.85;;;28.25;;
34872;SDS011;21084;51.098;14.506;2023-04-10T00:15:51;57.28;;;29.67;;
34872;SDS011;21084;51.098;14.506;2023-04-10T00:18:19;53.50;;;28.90;;
34872;SDS011;21084;51.098;14.506;2023-04-10T00:20:49;56.22;;;29.38;;
34872;SDS011;21084;51.098;14.506;2023-04-10T00:23:18;55.80;;;28.60;;
34872;SDS011;21084;51.098;14.506;2023-04-10T00:25:47;53.30;;;26.98;;
34872;SDS011;21084;51.098;14.506;2023-04-10T00:28:16;50.80;;;26.60;;
34872;SDS011;21084;51.098;14.506;2023-04-10T00:30:44;52.78;;;26.25;;
34872;SDS011;21084;51.098;14.506;2023-04-10T00:33:13;54.20;;;28.13;;
34872;SDS011;21084;51.098;14.506;2023-04-10T00:35:42;56.77;;;27.97;;
34872;SDS011;21084;51.098;14.506;2023-04-10T00:38:12;58.70;;;27.52;;
34872;SDS011;21084;51.098;14.506;2023-04-10T00:40:42;57.38;;;28.08;;
34872;SDS011;21084;51.098;14.506;2023-04-10T00:43:11;57.47;;;29.30;;
34872;SDS011;21084;51.098;14.506;2023-04-10T00:45:40;58.40;;;28.58;;
34872;SDS011;21084;51.098;14.506;2023-04-10T00:48:09;62.10;;;29.35;;
34872;SDS011;21084;51.098;14.506;2023-04-10T00:50:38;54.20;;;28.38;;
34872;SDS011;21084;51.098;14.506;2023-04-10T00:53:07;57.77;;;27.77;;
34872;SDS011;21084;51.098;14.506;2023-04-10T00:55:37;55.70;;;27.45;;
34872;SDS011;21084;51.098;14.506;2023-04-10T00:58:05;59.50;;;28.25;;
34872;SDS011;21084;51.098;14.506;2023-04-10T01:00:34;57.03;;;28.40;;
34872;SDS011;21084;51.098;14.506;2023-04-10T01:03:03;62.40;;;29.13;;
34872;SDS011;21084;51.098;14.506;2023-04-10T01:05:34;62.75;;;29.98;;
34872;SDS011;21084;51.098;14.506;2023-04-10T01:08:05;61.15;;;30.70;;
34872;SDS011;21084;51.098;14.506;2023-04-10T01:10:41;59.78;;;30.08;;
34872;SDS011;21084;51.098;14.506;2023-04-10T01:13:14;65.20;;;31.13;;
34872;SDS011;21084;51.098;14.506;2023-04-10T01:15:45;62.58;;;29.00;;
34872;SDS011;21084;51.098;14.506;2023-04-10T01:18:17;60.97;;;29.20;;
34872;SDS011;21084;51.098;14.506;2023-04-10T01:20:47;58.60;;;29.55;;
34872;SDS011;21084;51.098;14.506;2023-04-10T01:23:22;64.53;;;32.23;;
34872;SDS011;21084;51.098;14.506;2023-04-10T01:25:58;56.80;;;29.75;;
34872;SDS011;21084;51.098;14.506;2023-04-10T01:28:45;61.25;;;30.73;;
34872;SDS011;21084;51.098;14.506;2023-04-10T01:31:18;62.72;;;30.92;;
34872;SDS011;21084;51.098;14.506;2023-04-10T01:33:49;68.95;;;31.98;;
34872;SDS011;21084;51.098;14.506;2023-04-10T01:36:20;69.45;;;32.30;;
34872;SDS011;21084;51.098;14.506;2023-04-10T01:38:50;64.60;;;31.42;;
34872;SDS011;21084;51.098;14.506;2023-04-10T01:41:19;68.93;;;32.40;;
34872;SDS011;21084;51.098;14.506;2023-04-10T01:43:50;62.78;;;31.25;;
34872;SDS011;21084;51.098;14.506;2023-04-10T01:46:20;61.13;;;31.02;;
34872;SDS011;21084;51.098;14.506;2023-04-10T01:48:49;69.60;;;31.88;;
34872;SDS011;21084;51.098;14.506;2023-04-10T01:51:19;65.05;;;32.00;;
34872;SDS011;21084;51.098;14.506;2023-04-10T01:53:49;62.65;;;30.73;;
34872;SDS011;21084;51.098;14.506;2023-04-10T01:56:18;56.75;;;29.00;;
34872;SDS011;21084;51.098;14.506;2023-04-10T01:58:47;58.33;;;29.67;;
34872;SDS011;21084;51.098;14.506;2023-04-10T02:01:18;58.17;;;30.27;;
34872;SDS011;21084;51.098;14.506;2023-04-10T02:03:56;65.03;;;31.42;;
34872;SDS011;21084;51.098;14.506;2023-04-10T02:06:26;61.58;;;30.45;;
34872;SDS011;21084;51.098;14.506;2023-04-10T02:08:58;66.70;;;32.17;;
34872;SDS011;21084;51.098;14.506;2023-04-10T02:11:33;65.70;;;30.55;;
34872;SDS011;21084;51.098;14.506;2023-04-10T02:14:07;64.95;;;32.22;;
34872;SDS011;21084;51.098;14.506;2023-04-10T02:16:39;63.92;;;31.00;;
34872;SDS011;21084;51.098;14.506;2023-04-10T02:19:09;69.40;;;33.03;;
34872;SDS011;21084;51.098;14.506;2023-04-10T02:24:07;64.53;;;30.75;;
34872;SDS011;21084;51.098;14.506;2023-04-10T02:26:43;64.37;;;30.50;;
34872;SDS011;21084;51.098;14.506;2023-04-10T02:29:12;71.13;;;31.85;;
34872;SDS011;21084;51.098;14.506;2023-04-10T02:31:42;66.80;;;29.60;;
34872;SDS011;21084;51.098;14.506;2023-04-10T02:34:11;64.93;;;30.60;;
34872;SDS011;21084;51.098;14.506;2023-04-10T02:36:40;62.15;;;31.40;;
34872;SDS011;21084;51.098;14.506;2023-04-10T02:39:09;61.92;;;29.77;;
34872;SDS011;21084;51.098;14.506;2023-04-10T02:41:38;62.55;;;29.95;;
34872;SDS011;21084;51.098;14.506;2023-04-10T02:44:07;60.63;;;30.17;;
34872;SDS011;21084;51.098;14.506;2023-04-10T02:46:36;63.47;;;30.50;;
34872;SDS011;21084;51.098;14.506;2023-04-10T02:49:06;66.22;;;31.48;;
34872;SDS011;21084;51.098;14.506;2023-04-10T02:51:35;59.90;;;28.35;;
34872;SDS011;21084;51.098;14.506;2023-04-10T02:54:04;57.53;;;29.48;;
34872;SDS011;21084;51.098;14.506;2023-04-10T02:56:33;56.13;;;28.17;;
34872;SDS011;21084;51.098;14.506;2023-04-10T02:59:02;64.25;;;30.27;;
34872;SDS011;21084;51.098;14.506;2023-04-10T03:01:31;63.55;;;28.95;;
34872;SDS011;21084;51.098;14.506;2023-04-10T03:04:00;62.35;;;30.15;;
34872;SDS011;21084;51.098;14.506;2023-04-10T03:06:31;66.00;;;29.08;;
34872;SDS011;21084;51.098;14.506;2023-04-10T03:09:00;59.58;;;29.67;;
34872;SDS011;21084;51.098;14.506;2023-04-10T03:11:28;57.80;;;28.20;;
34872;SDS011;21084;51.098;14.506;2023-04-10T03:13:57;50.75;;;26.17;;
34872;SDS011;21084;51.098;14.506;2023-04-10T03:16:26;55.90;;;28.00;;
34872;SDS011;21084;51.098;14.506;2023-04-10T03:18:55;59.55;;;29.60;;
34872;SDS011;21084;51.098;14.506;2023-04-10T03:21:23;59.22;;;27.17;;
34872;SDS011;21084;51.098;14.506;2023-04-10T03:23:54;56.35;;;28.27;;
34872;SDS011;21084;51.098;14.506;2023-04-10T03:26:22;52.58;;;26.55;;
34872;SDS011;21084;51.098;14.506;2023-04-10T03:28:51;55.00;;;27.17;;
34872;SDS011;21084;51.098;14.506;2023-04-10T03:31:20;54.53;;;27.60;;
34872;SDS011;21084;51.098;14.506;2023-04-10T03:33:49;56.55;;;27.25;;
34872;SDS011;21084;51.098;14.506;2023-04-10T03:36:18;56.08;;;27.92;;
34872;SDS011;21084;51.098;14.506;2023-04-10T03:38:47;58.75;;;28.25;;
34872;SDS011;21084;51.098;14.506;2023-04-10T03:41:19;54.50;;;27.27;;
34872;SDS011;21084;51.098;14.506;2023-04-10T03:43:51;57.05;;;27.50;;
34872;SDS011;21084;51.098;14.506;2023-04-10T03:46:20;54.33;;;26.60;;
34872;SDS011;21084;51.098;14.506;2023-04-10T03:48:49;55.90;;;28.40;;
34872;SDS011;21084;51.098;14.506;2023-04-10T03:51:19;48.50;;;25.30;;
34872;SDS011;21084;51.098;14.506;2023-04-10T03:53:50;56.08;;;27.52;;
34872;SDS011;21084;51.098;14.506;2023-04-10T03:56:20;53.72;;;27.02;;
34872;SDS011;21084;51.098;14.506;2023-04-10T03:58:49;56.72;;;28.67;;
34872;SDS011;21084;51.098;14.506;2023-04-10T04:01:18;58.65;;;28.60;;
34872;SDS011;21084;51.098;14.506;2023-04-10T04:03:47;58.83;;;28.27;;
34872;SDS011;21084;51.098;14.506;2023-04-10T04:06:16;58.65;;;27.98;;
34872;SDS011;21084;51.098;14.506;2023-04-10T04:08:45;56.30;;;27.08;;
34872;SDS011;21084;51.098;14.506;2023-04-10T04:11:14;57.45;;;28.30;;
34872;SDS011;21084;51.098;14.506;2023-04-10T04:13:44;55.75;;;28.63;;
34872;SDS011;21084;51.098;14.506;2023-04-10T04:16:13;59.33;;;28.15;;
34872;SDS011;21084;51.098;14.506;2023-04-10T04:18:41;58.35;;;27.92;;
34872;SDS011;21084;51.098;14.506;2023-04-10T04:21:10;52.53;;;25.77;;
34872;SDS011;21084;51.098;14.506;2023-04-10T04:23:39;51.53;;;26.33;;
34872;SDS011;21084;51.098;14.506;2023-04-10T04:26:08;62.65;;;29.38;;
34872;SDS011;21084;51.098;14.506;2023-04-10T04:28:37;60.45;;;28.35;;
34872;SDS011;21084;51.098;14.506;2023-04-10T04:31:07;55.65;;;27.38;;
34872;SDS011;21084;51.098;14.506;2023-04-10T04:33:36;66.97;;;29.17;;
34872;SDS011;21084;51.098;14.506;2023-04-10T04:36:05;57.80;;;28.20;;
34872;SDS011;21084;51.098;14.506;2023-04-10T04:38:34;56.47;;;26.90;;
34872;SDS011;21084;51.098;14.506;2023-04-10T04:41:03;59.85;;;27.00;;
34872;SDS011;21084;51.098;14.506;2023-04-10T04:43:31;57.53;;;26.48;;
34872;SDS011;21084;51.098;14.506;2023-04-10T04:46:00;60.80;;;28.23;;
34872;SDS011;21084;51.098;14.506;2023-04-10T04:48:30;65.57;;;30.75;;
34872;SDS011;21084;51.098;14.506;2023-04-10T04:50:59;71.97;;;32.97;;
34872;SDS011;21084;51.098;14.506;2023-04-10T04:53:27;67.05;;;31.85;;
34872;SDS011;21084;51.098;14.506;2023-04-10T04:55:56;70.07;;;33.40;;
34872;SDS011;21084;51.098;14.506;2023-04-10T04:58:25;70.83;;;32.33;;
34872;SDS011;21084;51.098;14.506;2023-04-10T05:00:54;76.63;;;33.07;;
34872;SDS011;21084;51.098;14.506;2023-04-10T05:03:23;70.60;;;32.67;;
34872;SDS011;21084;51.098;14.506;2023-04-10T05:05:55;67.20;;;30.85;;
34872;SDS011;21084;51.098;14.506;2023-04-10T05:08:24;72.65;;;33.10;;
34872;SDS011;21084;51.098;14.506;2023-04-10T05:10:53;67.78;;;33.50;;
34872;SDS011;21084;51.098;14.506;2023-04-10T05:13:21;65.13;;;31.77;;
34872;SDS011;21084;51.098;14.506;2023-04-10T05:15:50;71.32;;;32.58;;
34872;SDS011;21084;51.098;14.506;2023-04-10T05:18:19;73.00;;;33.72;;
34872;SDS011;21084;51.098;14.506;2023-04-10T05:20:49;71.95;;;32.55;;
34872;SDS011;21084;51.098;14.506;2023-04-10T05:23:19;75.83;;;35.83;;
34872;SDS011;21084;51.098;14.506;2023-04-10T05:25:48;71.78;;;35.00;;
34872;SDS011;21084;51.098;14.506;2023-04-10T05:28:18;74.32;;;35.72;;
34872;SDS011;21084;51.098;14.506;2023-04-10T05:30:46;74.55;;;35.47;;
34872;SDS011;21084;51.098;14.506;2023-04-10T05:33:15;75.15;;;35.20;;
34872;SDS011;21084;51.098;14.506;2023-04-10T05:35:44;75.20;;;35.28;;
34872;SDS011;21084;51.098;14.506;2023-04-10T05:38:13;77.55;;;36.83;;
34872;SDS011;21084;51.098;14.506;2023-04-10T05:40:44;79.35;;;39.47;;
34872;SDS011;21084;51.098;14.506;2023-04-10T05:43:13;88.50;;;41.00;;
34872;SDS011;21084;51.098;14.506;2023-04-10T05:45:42;77.53;;;38.78;;
34872;SDS011;21084;51.098;14.506;2023-04-10T05:48:11;72.97;;;36.22;;
34872;SDS011;21084;51.098;14.506;2023-04-10T05:50:40;69.13;;;35.92;;
34872;SDS011;21084;51.098;14.506;2023-04-10T05:53:11;74.43;;;37.63;;
34872;SDS011;21084;51.098;14.506;2023-04-10T05:55:40;73.72;;;37.90;;
34872;SDS011;21084;51.098;14.506;2023-04-10T05:58:10;74.60;;;37.80;;
34872;SDS011;21084;51.098;14.506;2023-04-10T06:00:39;76.10;;;37.00;;
34872;SDS011;21084;51.098;14.506;2023-04-10T06:03:08;73.07;;;36.57;;
34872;SDS011;21084;51.098;14.506;2023-04-10T06:05:37;72.40;;;38.10;;
34872;SDS011;21084;51.098;14.506;2023-04-10T06:08:06;76.43;;;38.53;;
34872;SDS011;21084;51.098;14.506;2023-04-10T06:10:35;77.45;;;39.53;;
34872;SDS011;21084;51.098;14.506;2023-04-10T06:13:04;83.63;;;42.70;;
34872;SDS011;21084;51.098;14.506;2023-04-10T06:15:37;76.45;;;41.08;;
34872;SDS011;21084;51.098;14.506;2023-04-10T06:18:06;72.30;;;39.90;;
34872;SDS011;21084;51.098;14.506;2023-04-10T06:20:35;69.85;;;38.13;;
34872;SDS011;21084;51.098;14.506;2023-04-10T06:23:04;65.32;;;35.05;;
34872;SDS011;21084;51.098;14.506;2023-04-10T06:25:33;60.63;;;34.03;;
34872;SDS011;21084;51.098;14.506;2023-04-10T06:28:02;63.10;;;34.10;;
34872;SDS011;21084;51.098;14.506;2023-04-10T06:30:31;61.28;;;33.92;;
34872;SDS011;21084;51.098;14.506;2023-04-10T06:33:04;62.47;;;35.17;;
34872;SDS011;21084;51.098;14.506;2023-04-10T06:35:32;59.65;;;32.90;;
34872;SDS011;21084;51.098;14.506;2023-04-10T06:38:01;58.03;;;31.52;;
34872;SDS011;21084;51.098;14.506;2023-04-10T06:40:30;56.75;;;31.25;;
34872;SDS011;21084;51.098;14.506;2023-04-10T06:43:00;56.95;;;31.50;;
34872;SDS011;21084;51.098;14.506;2023-04-10T06:45:28;51.85;;;30.88;;
34872;SDS011;21084;51.098;14.506;2023-04-10T06:47:57;49.35;;;28.52;;
34872;SDS011;21084;51.098;14.506;2023-04-10T06:50:28;52.67;;;30.48;;
34872;SDS011;21084;51.098;14.506;2023-04-10T06:52:59;47.65;;;28.80;;
34872;SDS011;21084;51.098;14.506;2023-04-10T06:55:28;47.80;;;26.90;;
34872;SDS011;21084;51.098;14.506;2023-04-10T06:57:57;49.15;;;28.35;;
34872;SDS011;21084;51.098;14.506;2023-04-10T07:00:26;41.92;;;26.13;;
34872;SDS011;21084;51.098;14.506;2023-04-10T07:02:54;45.60;;;26.65;;
34872;SDS011;21084;51.098;14.506;2023-04-10T07:05:23;44.72;;;27.25;;
34872;SDS011;21084;51.098;14.506;2023-04-10T07:07:53;39.22;;;24.45;;
34872;SDS011;21084;51.098;14.506;2023-04-10T07:10:22;42.85;;;25.42;;
34872;SDS011;21084;51.098;14.506;2023-04-10T07:12:50;44.08;;;27.55;;
34872;SDS011;21084;51.098;14.506;2023-04-10T07:15:19;41.95;;;26.00;;
34872;SDS011;21084;51.098;14.506;2023-04-10T07:17:48;43.47;;;25.75;;
34872;SDS011;21084;51.098;14.506;2023-04-10T07:20:16;43.38;;;26.83;;
34872;SDS011;21084;51.098;14.506;2023-04-10T07:22:45;42.17;;;26.15;;
34872;SDS011;21084;51.098;14.506;2023-04-10T07:25:15;39.13;;;25.27;;
34872;SDS011;21084;51.098;14.506;2023-04-10T07:27:44;39.53;;;25.45;;
34872;SDS011;21084;51.098;14.506;2023-04-10T07:30:13;39.75;;;25.70;;
34872;SDS011;21084;51.098;14.506;2023-04-10T07:32:42;39.33;;;24.33;;
34872;SDS011;21084;51.098;14.506;2023-04-10T07:35:11;40.05;;;24.13;;
34872;SDS011;21084;51.098;14.506;2023-04-10T07:37:40;41.37;;;26.83;;
34872;SDS011;21084;51.098;14.506;2023-04-10T07:40:10;38.53;;;25.15;;
34872;SDS011;21084;51.098;14.506;2023-04-10T07:42:40;43.67;;;26.60;;
34872;SDS011;21084;51.098;14.506;2023-04-10T07:45:09;37.92;;;25.45;;
34872;SDS011;21084;51.098;14.506;2023-04-10T07:47:38;39.67;;;25.73;;
34872;SDS011;21084;51.098;14.506;2023-04-10T07:50:07;37.63;;;24.45;;
34872;SDS011;21084;51.098;14.506;2023-04-10T07:52:35;40.55;;;25.52;;
34872;SDS011;21084;51.098;14.506;2023-04-10T07:55:05;40.08;;;25.85;;
34872;SDS011;21084;51.098;14.506;2023-04-10T07:57:34;43.77;;;25.33;;
34872;SDS011;21084;51.098;14.506;2023-04-10T08:00:06;41.83;;;25.73;;
34872;SDS011;21084;51.098;14.506;2023-04-10T08:02:35;40.85;;;25.75;;
34872;SDS011;21084;51.098;14.506;2023-04-10T08:05:04;41.67;;;25.42;;
34872;SDS011;21084;51.098;14.506;2023-04-10T08:07:33;45.97;;;27.95;;
34872;SDS011;21084;51.098;14.506;2023-04-10T08:10:04;42.80;;;26.30;;
34872;SDS011;21084;51.098;14.506;2023-04-10T08:12:32;44.00;;;26.77;;
34872;SDS011;21084;51.098;14.506;2023-04-10T08:15:02;43.90;;;26.37;;
34872;SDS011;21084;51.098;14.506;2023-04-10T08:17:32;42.07;;;24.60;;
34872;SDS011;21084;51.098;14.506;2023-04-10T08:20:01;39.08;;;24.35;;
34872;SDS011;21084;51.098;14.506;2023-04-10T08:22:30;38.42;;;24.73;;
34872;SDS011;21084;51.098;14.506;2023-04-10T08:24:59;35.10;;;22.17;;
34872;SDS011;21084;51.098;14.506;2023-04-10T08:27:27;36.53;;;24.00;;
34872;SDS011;21084;51.098;14.506;2023-04-10T08:29:57;37.55;;;24.23;;
34872;SDS011;21084;51.098;14.506;2023-04-10T08:32:26;45.30;;;26.85;;
34872;SDS011;21084;51.098;14.506;2023-04-10T08:37:26;36.42;;;22.80;;
34872;SDS011;21084;51.098;14.506;2023-04-10T08:39:54;38.22;;;23.88;;
34872;SDS011;21084;51.098;14.506;2023-04-10T08:42:24;35.13;;;22.20;;
34872;SDS011;21084;51.098;14.506;2023-04-10T08:44:52;35.53;;;22.30;;
34872;SDS011;21084;51.098;14.506;2023-04-10T08:47:21;33.67;;;21.27;;
34872;SDS011;21084;51.098;14.506;2023-04-10T08:49:52;36.03;;;21.35;;
34872;SDS011;21084;51.098;14.506;2023-04-10T08:52:22;30.15;;;19.95;;
34872;SDS011;21084;51.098;14.506;2023-04-10T08:54:54;29.75;;;18.40;;
34872;SDS011;21084;51.098;14.506;2023-04-10T08:57:24;27.70;;;18.40;;
34872;SDS011;21084;51.098;14.506;2023-04-10T08:59:53;30.17;;;17.80;;
34872;SDS011;21084;51.098;14.506;2023-04-10T09:02:22;27.00;;;18.27;;
34872;SDS011;21084;51.098;14.506;2023-04-10T09:04:52;30.98;;;18.67;;
34872;SDS011;21084;51.098;14.506;2023-04-10T09:07:21;26.73;;;17.25;;
34872;SDS011;21084;51.098;14.506;2023-04-10T09:09:50;27.00;;;16.25;;
34872;SDS011;21084;51.098;14.506;2023-04-10T09:12:20;23.20;;;15.68;;
34872;SDS011;21084;51.098;14.506;2023-04-10T09:14:49;24.83;;;15.82;;
34872;SDS011;21084;51.098;14.506;2023-04-10T09:19:47;29.02;;;18.58;;
34872;SDS011;21084;51.098;14.506;2023-04-10T09:22:18;26.27;;;17.95;;
34872;SDS011;21084;51.098;14.506;2023-04-10T09:24:53;22.90;;;15.20;;
34872;SDS011;21084;51.098;14.506;2023-04-10T09:27:30;28.10;;;16.25;;
34872;SDS011;21084;51.098;14.506;2023-04-10T09:30:00;25.90;;;17.23;;
34872;SDS011;21084;51.098;14.506;2023-04-10T09:32:37;25.33;;;16.40;;
34872;SDS011;21084;51.098;14.506;2023-04-10T09:35:06;25.08;;;17.05;;
34872;SDS011;21084;51.098;14.506;2023-04-10T09:37:36;24.13;;;16.15;;
34872;SDS011;21084;51.098;14.506;2023-04-10T09:40:08;24.65;;;16.15;;
34872;SDS011;21084;51.098;14.506;2023-04-10T09:42:48;26.55;;;16.95;;
34872;SDS011;21084;51.098;14.506;2023-04-10T09:45:17;23.80;;;15.73;;
34872;SDS011;21084;51.098;14.506;2023-04-10T09:48:00;23.27;;;15.40;;
34872;SDS011;21084;51.098;14.506;2023-04-10T09:50:33;22.17;;;15.85;;
34872;SDS011;21084;51.098;14.506;2023-04-10T09:53:06;26.45;;;17.20;;
34872;SDS011;21084;51.098;14.506;2023-04-10T09:55:34;23.60;;;15.70;;
34872;SDS011;21084;51.098;14.506;2023-04-10T09:58:05;25.20;;;16.17;;
34872;SDS011;21084;51.098;14.506;2023-04-10T10:00:36;25.52;;;17.52;;
34872;SDS011;21084;51.098;14.506;2023-04-10T10:03:07;23.70;;;16.27;;
34872;SDS011;21084;51.098;14.506;2023-04-10T10:05:38;24.38;;;16.00;;
34872;SDS011;21084;51.098;14.506;2023-04-10T10:10:36;26.58;;;15.75;;
34872;SDS011;21084;51.098;14.506;2023-04-10T10:13:07;23.88;;;15.52;;
34872;SDS011;21084;51.098;14.506;2023-04-10T10:15:37;19.60;;;13.88;;
34872;SDS011;21084;51.098;14.506;2023-04-10T10:18:11;21.08;;;14.52;;
34872;SDS011;21084;51.098;14.506;2023-04-10T10:20:41;24.25;;;15.32;;
34872;SDS011;21084;51.098;14.506;2023-04-10T10:23:36;26.23;;;16.20;;
34872;SDS011;21084;51.098;14.506;2023-04-10T10:26:05;24.33;;;15.15;;
34872;SDS011;21084;51.098;14.506;2023-04-10T10:29:04;24.67;;;15.75;;
34872;SDS011;21084;51.098;14.506;2023-04-10T10:31:36;23.38;;;14.35;;
34872;SDS011;21084;51.098;14.506;2023-04-10T10:34:06;17.55;;;11.20;;
34872;SDS011;21084;51.098;14.506;2023-04-10T10:36:35;16.52;;;11.23;;
34872;SDS011;21084;51.098;14.506;2023-04-10T10:39:10;15.40;;;10.32;;
34872;SDS011;21084;51.098;14.506;2023-04-10T10:41:43;18.27;;;11.38;;
34872;SDS011;21084;51.098;14.506;2023-04-10T10:44:19;15.30;;;10.40;;
34872;SDS011;21084;51.098;14.506;2023-04-10T10:46:51;13.68;;;10.02;;
34872;SDS011;21084;51.098;14.506;2023-04-10T10:52:09;14.20;;;10.15;;
34872;SDS011;21084;51.098;14.506;2023-04-10T10:54:38;14.23;;;9.25;;
34872;SDS011;21084;51.098;14.506;2023-04-10T11:00:08;13.80;;;9.27;;
34872;SDS011;21084;51.098;14.506;2023-04-10T11:02:37;15.55;;;10.15;;
34872;SDS011;21084;51.098;14.506;2023-04-10T11:05:07;20.52;;;14.20;;
34872;SDS011;21084;51.098;14.506;2023-04-10T11:13:15;15.73;;;9.80;;
34872;SDS011;21084;51.098;14.506;2023-04-10T11:15:45;11.77;;;8.95;;
34872;SDS011;21084;51.098;14.506;2023-04-10T11:18:18;9.98;;;8.70;;
34872;SDS011;21084;51.098;14.506;2023-04-10T11:23:33;12.70;;;8.27;;
34872;SDS011;21084;51.098;14.506;2023-04-10T11:26:03;12.43;;;8.05;;
34872;SDS011;21084;51.098;14.506;2023-04-10T11:28:34;11.93;;;8.23;;
34872;SDS011;21084;51.098;14.506;2023-04-10T11:31:18;10.88;;;7.80;;
34872;SDS011;21084;51.098;14.506;2023-04-10T11:33:50;11.48;;;7.70;;
34872;SDS011;21084;51.098;14.506;2023-04-10T11:36:27;10.38;;;7.63;;
34872;SDS011;21084;51.098;14.506;2023-04-10T11:38:56;9.27;;;7.78;;
34872;SDS011;21084;51.098;14.506;2023-04-10T11:41:26;8.98;;;7.20;;
34872;SDS011;21084;51.098;14.506;2023-04-10T11:43:56;10.65;;;7.85;;
34872;SDS011;21084;51.098;14.506;2023-04-10T11:46:27;9.25;;;7.57;;
34872;SDS011;21084;51.098;14.506;2023-04-10T11:48:58;11.93;;;8.88;;
34872;SDS011;21084;51.098;14.506;2023-04-10T11:51:28;11.93;;;8.85;;
34872;SDS011;21084;51.098;14.506;2023-04-10T11:54:03;11.98;;;9.13;;
34872;SDS011;21084;51.098;14.506;2023-04-10T11:56:32;16.40;;;9.80;;
34872;SDS011;21084;51.098;14.506;2023-04-10T11:59:01;11.32;;;8.50;;
34872;SDS011;21084;51.098;14.506;2023-04-10T12:01:35;12.07;;;9.18;;
34872;SDS011;21084;51.098;14.506;2023-04-10T12:04:12;12.60;;;9.13;;
34872;SDS011;21084;51.098;14.506;2023-04-10T12:06:43;13.70;;;9.30;;
34872;SDS011;21084;51.098;14.506;2023-04-10T12:11:47;13.80;;;8.77;;
34872;SDS011;21084;51.098;14.506;2023-04-10T12:14:17;12.40;;;9.38;;
34872;SDS011;21084;51.098;14.506;2023-04-10T12:16:47;14.85;;;9.68;;
34872;SDS011;21084;51.098;14.506;2023-04-10T12:19:16;13.65;;;8.98;;
34872;SDS011;21084;51.098;14.506;2023-04-10T12:21:45;12.68;;;9.35;;
34872;SDS011;21084;51.098;14.506;2023-04-10T12:26:57;12.90;;;9.30;;
34872;SDS011;21084;51.098;14.506;2023-04-10T12:29:28;13.27;;;8.93;;
34872;SDS011;21084;51.098;14.506;2023-04-10T12:31:58;11.53;;;8.40;;
34872;SDS011;21084;51.098;14.506;2023-04-10T12:34:35;13.07;;;8.80;;
34872;SDS011;21084;51.098;14.506;2023-04-10T12:37:04;10.63;;;8.15;;
34872;SDS011;21084;51.098;14.506;2023-04-10T12:39:33;11.40;;;8.50;;
34872;SDS011;21084;51.098;14.506;2023-04-10T12:42:11;13.20;;;8.20;;
34872;SDS011;21084;51.098;14.506;2023-04-10T12:44:49;13.75;;;8.50;;
34872;SDS011;21084;51.098;14.506;2023-04-10T12:47:20;13.63;;;8.45;;
34872;SDS011;21084;51.098;14.506;2023-04-10T12:50:03;11.30;;;8.40;;
34872;SDS011;21084;51.098;14.506;2023-04-10T12:52:32;11.10;;;8.05;;
34872;SDS011;21084;51.098;14.506;2023-04-10T12:55:13;10.10;;;8.23;;
34872;SDS011;21084;51.098;14.506;2023-04-10T12:57:43;10.73;;;8.13;;
34872;SDS011;21084;51.098;14.506;2023-04-10T13:00:14;13.05;;;8.93;;
34872;SDS011;21084;51.098;14.506;2023-04-10T13:02:44;13.77;;;8.55;;
34872;SDS011;21084;51.098;14.506;2023-04-10T13:05:14;10.55;;;8.38;;
34872;SDS011;21084;51.098;14.506;2023-04-10T13:07:43;11.68;;;8.40;;
34872;SDS011;21084;51.098;14.506;2023-04-10T13:10:12;11.53;;;8.80;;
34872;SDS011;21084;51.098;14.506;2023-04-10T13:12:41;12.07;;;8.30;;
34872;SDS011;21084;51.098;14.506;2023-04-10T13:15:10;11.68;;;8.63;;
34872;SDS011;21084;51.098;14.506;2023-04-10T13:17:39;9.93;;;7.72;;
34872;SDS011;21084;51.098;14.506;2023-04-10T13:20:09;11.77;;;7.90;;
34872;SDS011;21084;51.098;14.506;2023-04-10T13:22:39;10.77;;;6.88;;
34872;SDS011;21084;51.098;14.506;2023-04-10T13:25:08;10.47;;;7.80;;
34872;SDS011;21084;51.098;14.506;2023-04-10T13:27:36;10.90;;;6.68;;
34872;SDS011;21084;51.098;14.506;2023-04-10T13:30:06;9.48;;;4.93;;
34872;SDS011;21084;51.098;14.506;2023-04-10T13:32:36;7.05;;;5.43;;
34872;SDS011;21084;51.098;14.506;2023-04-10T13:35:06;6.40;;;5.13;;
34872;SDS011;21084;51.098;14.506;2023-04-10T13:37:36;7.23;;;5.70;;
34872;SDS011;21084;51.098;14.506;2023-04-10T13:40:05;8.40;;;6.38;;
34872;SDS011;21084;51.098;14.506;2023-04-10T13:42:34;8.38;;;6.95;;
34872;SDS011;21084;51.098;14.506;2023-04-10T13:45:07;23.60;;;21.30;;
34872;SDS011;21084;51.098;14.506;2023-04-10T13:47:36;12.80;;;11.27;;
34872;SDS011;21084;51.098;14.506;2023-04-10T13:50:05;8.23;;;5.97;;
34872;SDS011;21084;51.098;14.506;2023-04-10T13:52:36;8.40;;;6.22;;
34872;SDS011;21084;51.098;14.506;2023-04-10T13:55:05;8.35;;;5.80;;
34872;SDS011;21084;51.098;14.506;2023-04-10T13:57:34;9.80;;;6.30;;
34872;SDS011;21084;51.098;14.506;2023-04-10T14:00:03;8.88;;;6.20;;
34872;SDS011;21084;51.098;14.506;2023-04-10T14:02:33;10.30;;;6.47;;
34872;SDS011;21084;51.098;14.506;2023-04-10T14:05:03;6.95;;;5.88;;
34872;SDS011;21084;51.098;14.506;2023-04-10T14:10:02;7.38;;;6.00;;
34872;SDS011;21084;51.098;14.506;2023-04-10T14:12:30;7.50;;;6.05;;
34872;SDS011;21084;51.098;14.506;2023-04-10T14:15:02;9.45;;;6.57;;
34872;SDS011;21084;51.098;14.506;2023-04-10T14:17:31;14.27;;;11.60;;
34872;SDS011;21084;51.098;14.506;2023-04-10T14:20:00;10.98;;;8.98;;
34872;SDS011;21084;51.098;14.506;2023-04-10T14:22:29;8.60;;;6.53;;
34872;SDS011;21084;51.098;14.506;2023-04-10T14:24:58;7.30;;;5.60;;
34872;SDS011;21084;51.098;14.506;2023-04-10T14:27:39;8.93;;;6.47;;
34872;SDS011;21084;51.098;14.506;2023-04-10T14:30:08;10.52;;;6.30;;
34872;SDS011;21084;51.098;14.506;2023-04-10T14:32:38;8.65;;;6.45;;
34872;SDS011;21084;51.098;14.506;2023-04-10T14:35:07;10.05;;;7.20;;
34872;SDS011;21084;51.098;14.506;2023-04-10T14:37:36;8.30;;;6.53;;
34872;SDS011;21084;51.098;14.506;2023-04-10T14:40:06;8.55;;;6.28;;
34872;SDS011;21084;51.098;14.506;2023-04-10T14:42:35;8.40;;;6.78;;
34872;SDS011;21084;51.098;14.506;2023-04-10T14:45:05;9.90;;;7.00;;
34872;SDS011;21084;51.098;14.506;2023-04-10T14:47:34;9.13;;;6.80;;
34872;SDS011;21084;51.098;14.506;2023-04-10T14:50:03;9.45;;;6.55;;
34872;SDS011;21084;51.098;14.506;2023-04-10T14:52:32;8.88;;;6.95;;
34872;SDS011;21084;51.098;14.506;2023-04-10T14:55:01;9.40;;;7.10;;
34872;SDS011;21084;51.098;14.506;2023-04-10T14:57:30;9.15;;;6.70;;
34872;SDS011;21084;51.098;14.506;2023-04-10T14:59:59;10.03;;;6.83;;
34872;SDS011;21084;51.098;14.506;2023-04-10T15:02:29;9.13;;;6.30;;